sensor_id;sensor_type;location;lat;lon;timestamp;P1;durP1;ratioP1;P2;durP2;ratioP2
23185;SDS011;11761;51.324;4.590;2022-10-01T00:01:46;4.97;;;3.33;;
23185;SDS011;11761;51.324;4.590;2022-10-01T00:04:12;5.00;;;3.33;;
23185;SDS011;11761;51.324;4.590;2022-10-01T00:06:38;4.25;;;3.22;;
23185;SDS011;11761;51.324;4.590;2022-10-01T00:09:04;4.68;;;3.53;;
23185;SDS011;11761;51.324;4.590;2022-10-01T00:11:30;4.63;;;2.97;;
23185;SDS011;11761;51.324;4.590;2022-10-01T00:13:58;5.20;;;3.20;;
23185;SDS011;11761;51.324;4.590;2022-10-01T00:16:27;4.80;;;3.35;;
23185;SDS011;11761;51.324;4.590;2022-10-01T00:18:54;5.05;;;3.45;;
23185;SDS011;11761;51.324;4.590;2022-10-01T00:21:25;4.05;;;2.50;;
23185;SDS011;11761;51.324;4.590;2022-10-01T00:23:54;4.97;;;3.50;;
23185;SDS011;11761;51.324;4.590;2022-10-01T00:26:22;3.67;;;2.75;;
23185;SDS011;11761;51.324;4.590;2022-10-01T00:28:56;4.35;;;3.17;;
23185;SDS011;11761;51.324;4.590;2022-10-01T00:31:25;5.18;;;3.38;;
23185;SDS011;11761;51.324;4.590;2022-10-01T00:33:52;5.45;;;2.90;;
23185;SDS011;11761;51.324;4.590;2022-10-01T00:36:23;4.32;;;3.03;;
23185;SDS011;11761;51.324;4.590;2022-10-01T00:38:50;4.95;;;3.28;;
23185;SDS011;11761;51.324;4.590;2022-10-01T00:41:17;5.05;;;2.75;;
23185;SDS011;11761;51.324;4.590;2022-10-01T00:43:44;4.22;;;2.92;;
23185;SDS011;11761;51.324;4.590;2022-10-01T00:46:18;3.13;;;2.50;;
23185;SDS011;11761;51.324;4.590;2022-10-01T00:51:23;2.92;;;2.33;;
23185;SDS011;11761;51.324;4.590;2022-10-01T00:53:53;3.50;;;2.20;;
23185;SDS011;11761;51.324;4.590;2022-10-01T00:56:22;3.30;;;2.50;;
23185;SDS011;11761;51.324;4.590;2022-10-01T00:58:49;3.15;;;2.20;;
23185;SDS011;11761;51.324;4.590;2022-10-01T01:01:18;2.30;;;1.80;;
23185;SDS011;11761;51.324;4.590;2022-10-01T01:03:45;3.25;;;2.40;;
23185;SDS011;11761;51.324;4.590;2022-10-01T01:06:11;3.55;;;2.10;;
23185;SDS011;11761;51.324;4.590;2022-10-01T01:08:37;3.30;;;2.00;;
23185;SDS011;11761;51.324;4.590;2022-10-01T01:13:36;2.17;;;1.70;;
23185;SDS011;11761;51.324;4.590;2022-10-01T01:16:16;1.95;;;1.63;;
23185;SDS011;11761;51.324;4.590;2022-10-01T01:18:55;2.08;;;1.67;;
23185;SDS011;11761;51.324;4.590;2022-10-01T01:21:39;2.33;;;1.90;;
23185;SDS011;11761;51.324;4.590;2022-10-01T01:27:13;2.42;;;1.67;;
23185;SDS011;11761;51.324;4.590;2022-10-01T01:29:42;2.30;;;1.50;;
23185;SDS011;11761;51.324;4.590;2022-10-01T01:35:24;3.55;;;1.70;;
23185;SDS011;11761;51.324;4.590;2022-10-01T01:38:01;2.40;;;1.77;;
23185;SDS011;11761;51.324;4.590;2022-10-01T01:40:32;2.42;;;1.75;;
23185;SDS011;11761;51.324;4.590;2022-10-01T01:43:06;2.00;;;1.52;;
23185;SDS011;11761;51.324;4.590;2022-10-01T01:45:37;2.78;;;1.90;;
23185;SDS011;11761;51.324;4.590;2022-10-01T01:48:05;2.35;;;1.65;;
23185;SDS011;11761;51.324;4.590;2022-10-01T01:50:36;1.45;;;1.20;;
23185;SDS011;11761;51.324;4.590;2022-10-01T01:55:33;1.13;;;1.00;;
23185;SDS011;11761;51.324;4.590;2022-10-01T01:58:01;2.20;;;1.50;;
23185;SDS011;11761;51.324;4.590;2022-10-01T02:00:27;1.77;;;1.40;;
23185;SDS011;11761;51.324;4.590;2022-10-01T02:02:54;2.30;;;1.30;;
23185;SDS011;11761;51.324;4.590;2022-10-01T02:05:22;1.52;;;1.42;;
23185;SDS011;11761;51.324;4.590;2022-10-01T02:13:40;1.95;;;1.35;;
23185;SDS011;11761;51.324;4.590;2022-10-01T02:18:48;1.80;;;1.20;;
23185;SDS011;11761;51.324;4.590;2022-10-01T02:22:08;1.60;;;1.20;;
23185;SDS011;11761;51.324;4.590;2022-10-01T02:24:48;2.17;;;1.40;;
23185;SDS011;11761;51.324;4.590;2022-10-01T02:27:32;2.40;;;1.30;;
23185;SDS011;11761;51.324;4.590;2022-10-01T02:30:09;1.15;;;0.82;;
23185;SDS011;11761;51.324;4.590;2022-10-01T02:32:38;1.60;;;1.17;;
23185;SDS011;11761;51.324;4.590;2022-10-01T02:35:05;3.22;;;1.05;;
23185;SDS011;11761;51.324;4.590;2022-10-01T02:37:35;1.17;;;0.88;;
23185;SDS011;11761;51.324;4.590;2022-10-01T02:40:03;1.13;;;1.00;;
23185;SDS011;11761;51.324;4.590;2022-10-01T02:42:34;1.35;;;0.93;;
23185;SDS011;11761;51.324;4.590;2022-10-01T02:45:01;1.08;;;0.95;;
23185;SDS011;11761;51.324;4.590;2022-10-01T02:47:30;1.17;;;0.90;;
23185;SDS011;11761;51.324;4.590;2022-10-01T02:50:02;1.52;;;1.30;;
23185;SDS011;11761;51.324;4.590;2022-10-01T02:55:00;1.42;;;0.88;;
23185;SDS011;11761;51.324;4.590;2022-10-01T02:57:31;1.58;;;0.90;;
23185;SDS011;11761;51.324;4.590;2022-10-01T02:59:59;1.40;;;1.10;;
23185;SDS011;11761;51.324;4.590;2022-10-01T03:02:29;1.95;;;1.00;;
23185;SDS011;11761;51.324;4.590;2022-10-01T03:04:56;1.70;;;0.82;;
23185;SDS011;11761;51.324;4.590;2022-10-01T03:07:24;1.15;;;0.80;;
23185;SDS011;11761;51.324;4.590;2022-10-01T03:09:51;1.92;;;0.88;;
23185;SDS011;11761;51.324;4.590;2022-10-01T03:12:17;1.48;;;0.82;;
23185;SDS011;11761;51.324;4.590;2022-10-01T03:14:44;1.38;;;1.00;;
23185;SDS011;11761;51.324;4.590;2022-10-01T03:17:10;1.27;;;0.90;;
23185;SDS011;11761;51.324;4.590;2022-10-01T03:19:37;1.52;;;0.80;;
23185;SDS011;11761;51.324;4.590;2022-10-01T03:22:05;0.90;;;0.70;;
23185;SDS011;11761;51.324;4.590;2022-10-01T03:24:31;0.90;;;0.73;;
23185;SDS011;11761;51.324;4.590;2022-10-01T03:26:58;0.77;;;0.68;;
23185;SDS011;11761;51.324;4.590;2022-10-01T03:29:24;0.90;;;0.73;;
23185;SDS011;11761;51.324;4.590;2022-10-01T03:31:51;0.80;;;0.75;;
23185;SDS011;11761;51.324;4.590;2022-10-01T03:34:17;1.17;;;0.90;;
23185;SDS011;11761;51.324;4.590;2022-10-01T03:36:44;1.35;;;0.93;;
23185;SDS011;11761;51.324;4.590;2022-10-01T03:39:11;1.13;;;0.75;;
23185;SDS011;11761;51.324;4.590;2022-10-01T03:41:38;1.02;;;0.77;;
23185;SDS011;11761;51.324;4.590;2022-10-01T03:44:05;1.30;;;1.00;;
23185;SDS011;11761;51.324;4.590;2022-10-01T03:46:31;1.10;;;0.80;;
23185;SDS011;11761;51.324;4.590;2022-10-01T03:48:57;1.77;;;0.98;;
23185;SDS011;11761;51.324;4.590;2022-10-01T03:51:28;1.17;;;0.90;;
23185;SDS011;11761;51.324;4.590;2022-10-01T03:53:56;1.25;;;0.98;;
23185;SDS011;11761;51.324;4.590;2022-10-01T03:56:23;1.60;;;0.90;;
23185;SDS011;11761;51.324;4.590;2022-10-01T03:58:50;1.70;;;1.10;;
23185;SDS011;11761;51.324;4.590;2022-10-01T04:01:16;3.05;;;1.10;;
23185;SDS011;11761;51.324;4.590;2022-10-01T04:03:42;1.13;;;1.02;;
23185;SDS011;11761;51.324;4.590;2022-10-01T04:06:08;2.05;;;1.45;;
23185;SDS011;11761;51.324;4.590;2022-10-01T04:08:35;1.48;;;1.15;;
23185;SDS011;11761;51.324;4.590;2022-10-01T04:11:02;1.98;;;1.30;;
23185;SDS011;11761;51.324;4.590;2022-10-01T04:13:30;1.52;;;1.15;;
23185;SDS011;11761;51.324;4.590;2022-10-01T04:15:57;4.47;;;1.65;;
23185;SDS011;11761;51.324;4.590;2022-10-01T04:18:23;2.10;;;1.52;;
23185;SDS011;11761;51.324;4.590;2022-10-01T04:20:49;2.00;;;1.38;;
23185;SDS011;11761;51.324;4.590;2022-10-01T04:23:15;2.28;;;1.40;;
23185;SDS011;11761;51.324;4.590;2022-10-01T04:25:41;1.92;;;1.60;;
23185;SDS011;11761;51.324;4.590;2022-10-01T04:28:09;2.50;;;1.50;;
23185;SDS011;11761;51.324;4.590;2022-10-01T04:30:38;2.85;;;1.83;;
23185;SDS011;11761;51.324;4.590;2022-10-01T04:33:07;2.53;;;1.73;;
23185;SDS011;11761;51.324;4.590;2022-10-01T04:35:36;2.00;;;1.67;;
23185;SDS011;11761;51.324;4.590;2022-10-01T04:38:04;2.90;;;2.00;;
23185;SDS011;11761;51.324;4.590;2022-10-01T04:40:33;2.47;;;1.92;;
23185;SDS011;11761;51.324;4.590;2022-10-01T04:43:00;3.60;;;2.03;;
23185;SDS011;11761;51.324;4.590;2022-10-01T04:45:27;2.78;;;1.95;;
23185;SDS011;11761;51.324;4.590;2022-10-01T04:47:54;3.42;;;2.05;;
23185;SDS011;11761;51.324;4.590;2022-10-01T04:50:21;3.33;;;2.40;;
23185;SDS011;11761;51.324;4.590;2022-10-01T04:52:49;4.50;;;2.63;;
23185;SDS011;11761;51.324;4.590;2022-10-01T04:55:16;3.15;;;2.25;;
23185;SDS011;11761;51.324;4.590;2022-10-01T04:57:43;4.13;;;2.80;;
23185;SDS011;11761;51.324;4.590;2022-10-01T05:00:11;4.30;;;3.03;;
23185;SDS011;11761;51.324;4.590;2022-10-01T05:02:39;4.65;;;2.88;;
23185;SDS011;11761;51.324;4.590;2022-10-01T05:05:07;3.72;;;2.60;;
23185;SDS011;11761;51.324;4.590;2022-10-01T05:07:34;4.38;;;2.70;;
23185;SDS011;11761;51.324;4.590;2022-10-01T05:10:01;4.10;;;2.78;;
23185;SDS011;11761;51.324;4.590;2022-10-01T05:12:27;4.13;;;2.58;;
23185;SDS011;11761;51.324;4.590;2022-10-01T05:14:54;3.85;;;2.78;;
23185;SDS011;11761;51.324;4.590;2022-10-01T05:17:21;4.57;;;3.15;;
23185;SDS011;11761;51.324;4.590;2022-10-01T05:19:48;3.47;;;2.45;;
23185;SDS011;11761;51.324;4.590;2022-10-01T05:22:15;4.55;;;3.00;;
23185;SDS011;11761;51.324;4.590;2022-10-01T05:24:41;4.93;;;3.50;;
23185;SDS011;11761;51.324;4.590;2022-10-01T05:27:08;3.95;;;2.92;;
23185;SDS011;11761;51.324;4.590;2022-10-01T05:29:36;5.63;;;3.80;;
23185;SDS011;11761;51.324;4.590;2022-10-01T05:32:03;5.88;;;3.70;;
23185;SDS011;11761;51.324;4.590;2022-10-01T05:34:30;5.40;;;3.30;;
23185;SDS011;11761;51.324;4.590;2022-10-01T05:36:56;4.70;;;3.38;;
23185;SDS011;11761;51.324;4.590;2022-10-01T05:39:22;5.13;;;3.38;;
23185;SDS011;11761;51.324;4.590;2022-10-01T05:41:48;5.60;;;3.80;;
23185;SDS011;11761;51.324;4.590;2022-10-01T05:44:15;4.70;;;3.15;;
23185;SDS011;11761;51.324;4.590;2022-10-01T05:46:41;5.20;;;3.55;;
23185;SDS011;11761;51.324;4.590;2022-10-01T05:49:08;5.18;;;3.70;;
23185;SDS011;11761;51.324;4.590;2022-10-01T05:51:35;5.15;;;3.38;;
23185;SDS011;11761;51.324;4.590;2022-10-01T05:54:01;6.10;;;4.07;;
23185;SDS011;11761;51.324;4.590;2022-10-01T05:56:28;5.10;;;3.30;;
23185;SDS011;11761;51.324;4.590;2022-10-01T05:58:55;3.97;;;2.97;;
23185;SDS011;11761;51.324;4.590;2022-10-01T06:01:21;5.20;;;3.50;;
23185;SDS011;11761;51.324;4.590;2022-10-01T06:03:50;4.95;;;3.28;;
23185;SDS011;11761;51.324;4.590;2022-10-01T06:06:23;5.07;;;3.58;;
23185;SDS011;11761;51.324;4.590;2022-10-01T06:08:51;5.15;;;3.45;;
23185;SDS011;11761;51.324;4.590;2022-10-01T06:11:18;7.18;;;4.18;;
23185;SDS011;11761;51.324;4.590;2022-10-01T06:13:46;8.02;;;4.30;;
23185;SDS011;11761;51.324;4.590;2022-10-01T06:16:13;7.85;;;4.40;;
23185;SDS011;11761;51.324;4.590;2022-10-01T06:18:40;10.23;;;6.20;;
23185;SDS011;11761;51.324;4.590;2022-10-01T06:21:06;6.32;;;3.90;;
23185;SDS011;11761;51.324;4.590;2022-10-01T06:23:34;15.07;;;9.63;;
23185;SDS011;11761;51.324;4.590;2022-10-01T06:26:01;10.85;;;6.85;;
23185;SDS011;11761;51.324;4.590;2022-10-01T06:28:30;5.63;;;3.80;;
23185;SDS011;11761;51.324;4.590;2022-10-01T06:30:59;34.05;;;19.00;;
23185;SDS011;11761;51.324;4.590;2022-10-01T06:33:26;10.23;;;6.25;;
23185;SDS011;11761;51.324;4.590;2022-10-01T06:35:52;4.53;;;3.28;;
23185;SDS011;11761;51.324;4.590;2022-10-01T06:38:19;4.20;;;3.00;;
23185;SDS011;11761;51.324;4.590;2022-10-01T06:40:50;6.28;;;3.17;;
23185;SDS011;11761;51.324;4.590;2022-10-01T06:43:17;4.65;;;3.22;;
23185;SDS011;11761;51.324;4.590;2022-10-01T06:45:43;4.55;;;3.03;;
23185;SDS011;11761;51.324;4.590;2022-10-01T06:48:11;4.05;;;2.70;;
23185;SDS011;11761;51.324;4.590;2022-10-01T06:50:39;4.35;;;2.80;;
23185;SDS011;11761;51.324;4.590;2022-10-01T06:53:06;5.28;;;2.80;;
23185;SDS011;11761;51.324;4.590;2022-10-01T06:55:33;5.32;;;3.08;;
23185;SDS011;11761;51.324;4.590;2022-10-01T06:58:01;4.43;;;2.72;;
23185;SDS011;11761;51.324;4.590;2022-10-01T07:00:30;5.03;;;3.25;;
23185;SDS011;11761;51.324;4.590;2022-10-01T07:02:58;4.20;;;2.60;;
23185;SDS011;11761;51.324;4.590;2022-10-01T07:05:25;3.08;;;1.92;;
23185;SDS011;11761;51.324;4.590;2022-10-01T07:07:52;4.85;;;3.65;;
23185;SDS011;11761;51.324;4.590;2022-10-01T07:10:19;2.60;;;2.03;;
23185;SDS011;11761;51.324;4.590;2022-10-01T07:12:46;3.80;;;2.20;;
23185;SDS011;11761;51.324;4.590;2022-10-01T07:15:14;6.53;;;3.45;;
23185;SDS011;11761;51.324;4.590;2022-10-01T07:17:41;3.83;;;2.10;;
23185;SDS011;11761;51.324;4.590;2022-10-01T07:20:13;3.13;;;2.00;;
23185;SDS011;11761;51.324;4.590;2022-10-01T07:22:42;2.85;;;2.00;;
23185;SDS011;11761;51.324;4.590;2022-10-01T07:25:09;2.85;;;2.00;;
23185;SDS011;11761;51.324;4.590;2022-10-01T07:27:35;2.78;;;1.75;;
23185;SDS011;11761;51.324;4.590;2022-10-01T07:30:03;2.85;;;1.70;;
23185;SDS011;11761;51.324;4.590;2022-10-01T07:32:30;2.63;;;1.85;;
23185;SDS011;11761;51.324;4.590;2022-10-01T07:34:56;3.08;;;1.77;;
23185;SDS011;11761;51.324;4.590;2022-10-01T07:37:23;3.17;;;1.85;;
23185;SDS011;11761;51.324;4.590;2022-10-01T07:39:50;3.25;;;1.85;;
23185;SDS011;11761;51.324;4.590;2022-10-01T07:42:16;2.65;;;1.67;;
23185;SDS011;11761;51.324;4.590;2022-10-01T07:44:42;3.75;;;2.53;;
23185;SDS011;11761;51.324;4.590;2022-10-01T07:47:08;2.88;;;2.08;;
23185;SDS011;11761;51.324;4.590;2022-10-01T07:49:34;3.65;;;2.05;;
23185;SDS011;11761;51.324;4.590;2022-10-01T07:52:00;5.03;;;2.10;;
23185;SDS011;11761;51.324;4.590;2022-10-01T07:54:26;4.72;;;2.65;;
23185;SDS011;11761;51.324;4.590;2022-10-01T07:56:53;5.30;;;2.35;;
23185;SDS011;11761;51.324;4.590;2022-10-01T07:59:20;4.07;;;2.47;;
23185;SDS011;11761;51.324;4.590;2022-10-01T08:01:48;3.55;;;2.60;;
23185;SDS011;11761;51.324;4.590;2022-10-01T08:04:16;4.18;;;2.45;;
23185;SDS011;11761;51.324;4.590;2022-10-01T08:07:02;5.93;;;2.90;;
23185;SDS011;11761;51.324;4.590;2022-10-01T08:09:28;3.80;;;2.35;;
23185;SDS011;11761;51.324;4.590;2022-10-01T08:11:54;4.30;;;2.35;;
23185;SDS011;11761;51.324;4.590;2022-10-01T08:14:21;3.75;;;1.98;;
23185;SDS011;11761;51.324;4.590;2022-10-01T08:16:47;3.63;;;1.90;;
23185;SDS011;11761;51.324;4.590;2022-10-01T08:19:13;3.13;;;1.42;;
23185;SDS011;11761;51.324;4.590;2022-10-01T08:21:40;4.53;;;1.70;;
23185;SDS011;11761;51.324;4.590;2022-10-01T08:24:07;5.28;;;1.75;;
23185;SDS011;11761;51.324;4.590;2022-10-01T08:26:34;2.30;;;1.17;;
23185;SDS011;11761;51.324;4.590;2022-10-01T08:29:00;3.97;;;1.75;;
23185;SDS011;11761;51.324;4.590;2022-10-01T08:31:26;3.67;;;1.75;;
23185;SDS011;11761;51.324;4.590;2022-10-01T08:33:52;3.17;;;2.00;;
23185;SDS011;11761;51.324;4.590;2022-10-01T08:36:19;3.42;;;1.50;;
23185;SDS011;11761;51.324;4.590;2022-10-01T08:38:45;2.33;;;1.38;;
23185;SDS011;11761;51.324;4.590;2022-10-01T08:41:18;9.07;;;1.88;;
23185;SDS011;11761;51.324;4.590;2022-10-01T08:43:54;4.40;;;1.48;;
23185;SDS011;11761;51.324;4.590;2022-10-01T08:46:22;3.05;;;1.40;;
23185;SDS011;11761;51.324;4.590;2022-10-01T08:56:46;2.42;;;1.30;;
23185;SDS011;11761;51.324;4.590;2022-10-01T09:01:54;1.58;;;1.05;;
23185;SDS011;11761;51.324;4.590;2022-10-01T09:04:21;5.50;;;1.38;;
23185;SDS011;11761;51.324;4.590;2022-10-01T09:06:49;2.30;;;1.30;;
23185;SDS011;11761;51.324;4.590;2022-10-01T09:11:56;2.15;;;1.50;;
23185;SDS011;11761;51.324;4.590;2022-10-01T09:20:24;2.42;;;1.33;;
23185;SDS011;11761;51.324;4.590;2022-10-01T09:23:12;4.43;;;1.70;;
23185;SDS011;11761;51.324;4.590;2022-10-01T09:25:42;4.40;;;1.60;;
23185;SDS011;11761;51.324;4.590;2022-10-01T09:34:01;3.55;;;1.52;;
23185;SDS011;11761;51.324;4.590;2022-10-01T09:39:11;1.58;;;1.05;;
23185;SDS011;11761;51.324;4.590;2022-10-01T09:41:52;3.80;;;1.35;;
23185;SDS011;11761;51.324;4.590;2022-10-01T09:44:24;3.38;;;1.00;;
23185;SDS011;11761;51.324;4.590;2022-10-01T09:46:53;1.63;;;1.30;;
23185;SDS011;11761;51.324;4.590;2022-10-01T09:49:30;4.85;;;1.83;;
23185;SDS011;11761;51.324;4.590;2022-10-01T09:52:23;1.27;;;0.90;;
23185;SDS011;11761;51.324;4.590;2022-10-01T09:55:01;2.70;;;1.50;;
23185;SDS011;11761;51.324;4.590;2022-10-01T09:57:43;2.65;;;1.23;;
23185;SDS011;11761;51.324;4.590;2022-10-01T10:00:19;1.88;;;1.10;;
23185;SDS011;11761;51.324;4.590;2022-10-01T10:02:47;3.63;;;0.98;;
23185;SDS011;11761;51.324;4.590;2022-10-01T10:05:18;3.80;;;1.05;;
23185;SDS011;11761;51.324;4.590;2022-10-01T10:07:54;4.63;;;1.80;;
23185;SDS011;11761;51.324;4.590;2022-10-01T10:12:56;1.95;;;0.93;;
23185;SDS011;11761;51.324;4.590;2022-10-01T10:15:27;5.45;;;1.80;;
23185;SDS011;11761;51.324;4.590;2022-10-01T10:18:02;3.80;;;1.08;;
23185;SDS011;11761;51.324;4.590;2022-10-01T10:20:38;2.33;;;1.20;;
23185;SDS011;11761;51.324;4.590;2022-10-01T10:25:43;4.65;;;1.10;;
23185;SDS011;11761;51.324;4.590;2022-10-01T10:28:19;3.33;;;0.90;;
23185;SDS011;11761;51.324;4.590;2022-10-01T10:30:48;2.70;;;1.02;;
23185;SDS011;11761;51.324;4.590;2022-10-01T10:33:17;2.80;;;0.90;;
23185;SDS011;11761;51.324;4.590;2022-10-01T10:38:45;4.57;;;1.20;;
23185;SDS011;11761;51.324;4.590;2022-10-01T10:41:15;3.38;;;1.30;;
23185;SDS011;11761;51.324;4.590;2022-10-01T10:43:44;4.40;;;1.30;;
23185;SDS011;11761;51.324;4.590;2022-10-01T10:46:20;2.33;;;1.73;;
23185;SDS011;11761;51.324;4.590;2022-10-01T10:48:57;4.25;;;1.17;;
23185;SDS011;11761;51.324;4.590;2022-10-01T10:51:49;4.53;;;1.67;;
23185;SDS011;11761;51.324;4.590;2022-10-01T10:54:21;3.10;;;1.35;;
23185;SDS011;11761;51.324;4.590;2022-10-01T10:56:53;3.28;;;1.08;;
23185;SDS011;11761;51.324;4.590;2022-10-01T10:59:24;3.55;;;0.80;;
23185;SDS011;11761;51.324;4.590;2022-10-01T11:01:50;3.60;;;0.88;;
23185;SDS011;11761;51.324;4.590;2022-10-01T11:04:20;4.22;;;1.17;;
23185;SDS011;11761;51.324;4.590;2022-10-01T11:06:58;3.70;;;1.08;;
23185;SDS011;11761;51.324;4.590;2022-10-01T11:09:30;5.55;;;1.08;;
23185;SDS011;11761;51.324;4.590;2022-10-01T11:43:05;2.40;;;1.00;;
23185;SDS011;11761;51.324;4.590;2022-10-01T11:45:45;3.33;;;0.80;;
23185;SDS011;11761;51.324;4.590;2022-10-01T11:48:18;3.47;;;0.60;;
23185;SDS011;11761;51.324;4.590;2022-10-01T11:50:52;3.40;;;0.80;;
23185;SDS011;11761;51.324;4.590;2022-10-01T11:53:24;3.10;;;0.60;;
23185;SDS011;11761;51.324;4.590;2022-10-01T11:56:01;3.85;;;0.60;;
23185;SDS011;11761;51.324;4.590;2022-10-01T11:59:01;1.23;;;0.82;;
23185;SDS011;11761;51.324;4.590;2022-10-01T12:02:50;3.47;;;0.88;;
23185;SDS011;11761;51.324;4.590;2022-10-01T12:05:21;2.35;;;0.70;;
23185;SDS011;11761;51.324;4.590;2022-10-01T12:07:55;1.05;;;0.30;;
23185;SDS011;11761;51.324;4.590;2022-10-01T12:10:37;2.33;;;0.65;;
23185;SDS011;11761;51.324;4.590;2022-10-01T12:19:20;2.40;;;0.88;;
23185;SDS011;11761;51.324;4.590;2022-10-01T12:24:19;2.78;;;0.57;;
23185;SDS011;11761;51.324;4.590;2022-10-01T12:29:27;2.53;;;0.63;;
23185;SDS011;11761;51.324;4.590;2022-10-01T12:32:39;1.73;;;0.70;;
23185;SDS011;11761;51.324;4.590;2022-10-01T12:40:57;1.63;;;0.52;;
23185;SDS011;11761;51.324;4.590;2022-10-01T12:51:42;1.85;;;0.85;;
23185;SDS011;11761;51.324;4.590;2022-10-01T12:57:29;2.05;;;1.10;;
23185;SDS011;11761;51.324;4.590;2022-10-01T13:00:17;1.95;;;0.85;;
23185;SDS011;11761;51.324;4.590;2022-10-01T13:05:32;2.10;;;0.80;;
23185;SDS011;11761;51.324;4.590;2022-10-01T13:13:30;1.80;;;0.43;;
23185;SDS011;11761;51.324;4.590;2022-10-01T13:18:52;1.80;;;0.40;;
23185;SDS011;11761;51.324;4.590;2022-10-01T13:21:49;0.88;;;0.50;;
23185;SDS011;11761;51.324;4.590;2022-10-01T13:30:12;1.38;;;0.40;;
23185;SDS011;11761;51.324;4.590;2022-10-01T13:32:50;1.20;;;0.60;;
23185;SDS011;11761;51.324;4.590;2022-10-01T13:38:32;3.75;;;0.68;;
23185;SDS011;11761;51.324;4.590;2022-10-01T13:41:18;1.88;;;0.40;;
23185;SDS011;11761;51.324;4.590;2022-10-01T13:46:23;4.75;;;0.60;;
23185;SDS011;11761;51.324;4.590;2022-10-01T13:48:52;2.13;;;0.50;;
23185;SDS011;11761;51.324;4.590;2022-10-01T13:51:19;2.17;;;0.65;;
23185;SDS011;11761;51.324;4.590;2022-10-01T13:53:50;1.05;;;0.57;;
23185;SDS011;11761;51.324;4.590;2022-10-01T13:56:27;1.65;;;0.73;;
23185;SDS011;11761;51.324;4.590;2022-10-01T13:58:54;1.42;;;0.70;;
23185;SDS011;11761;51.324;4.590;2022-10-01T14:03:48;2.95;;;0.57;;
23185;SDS011;11761;51.324;4.590;2022-10-01T14:06:26;1.00;;;0.40;;
23185;SDS011;11761;51.324;4.590;2022-10-01T14:08:58;1.33;;;0.70;;
23185;SDS011;11761;51.324;4.590;2022-10-01T14:11:36;1.48;;;0.80;;
23185;SDS011;11761;51.324;4.590;2022-10-01T14:14:24;2.03;;;0.35;;
23185;SDS011;11761;51.324;4.590;2022-10-01T14:17:26;1.52;;;0.32;;
23185;SDS011;11761;51.324;4.590;2022-10-01T14:19:55;0.98;;;0.43;;
23185;SDS011;11761;51.324;4.590;2022-10-01T14:22:25;2.78;;;0.60;;
23185;SDS011;11761;51.324;4.590;2022-10-01T14:30:54;1.25;;;0.50;;
23185;SDS011;11761;51.324;4.590;2022-10-01T14:36:25;1.35;;;0.75;;
23185;SDS011;11761;51.324;4.590;2022-10-01T14:41:50;1.15;;;0.47;;
23185;SDS011;11761;51.324;4.590;2022-10-01T14:46:55;1.55;;;0.57;;
23185;SDS011;11761;51.324;4.590;2022-10-01T14:49:27;2.90;;;0.90;;
23185;SDS011;11761;51.324;4.590;2022-10-01T14:54:24;2.67;;;1.25;;
23185;SDS011;11761;51.324;4.590;2022-10-01T14:56:52;2.58;;;0.50;;
23185;SDS011;11761;51.324;4.590;2022-10-01T14:59:28;0.55;;;0.50;;
23185;SDS011;11761;51.324;4.590;2022-10-01T15:02:00;0.47;;;0.35;;
23185;SDS011;11761;51.324;4.590;2022-10-01T15:04:29;2.55;;;0.73;;
23185;SDS011;11761;51.324;4.590;2022-10-01T15:07:01;2.67;;;0.60;;
23185;SDS011;11761;51.324;4.590;2022-10-01T15:09:31;1.05;;;0.50;;
23185;SDS011;11761;51.324;4.590;2022-10-01T15:11:58;0.40;;;0.30;;
23185;SDS011;11761;51.324;4.590;2022-10-01T15:14:24;1.42;;;0.50;;
23185;SDS011;11761;51.324;4.590;2022-10-01T15:16:50;1.58;;;0.60;;
23185;SDS011;11761;51.324;4.590;2022-10-01T15:19:18;1.67;;;0.90;;
23185;SDS011;11761;51.324;4.590;2022-10-01T15:21:47;2.13;;;0.50;;
23185;SDS011;11761;51.324;4.590;2022-10-01T15:24:19;2.05;;;0.70;;
23185;SDS011;11761;51.324;4.590;2022-10-01T15:27:08;1.80;;;0.50;;
23185;SDS011;11761;51.324;4.590;2022-10-01T15:29:37;1.90;;;0.45;;
23185;SDS011;11761;51.324;4.590;2022-10-01T15:32:04;1.50;;;0.45;;
23185;SDS011;11761;51.324;4.590;2022-10-01T15:34:32;0.73;;;0.38;;
23185;SDS011;11761;51.324;4.590;2022-10-01T15:36:59;1.65;;;0.50;;
23185;SDS011;11761;51.324;4.590;2022-10-01T15:41:55;1.75;;;0.60;;
23185;SDS011;11761;51.324;4.590;2022-10-01T15:52:35;0.60;;;0.50;;
23185;SDS011;11761;51.324;4.590;2022-10-01T15:55:17;1.70;;;0.60;;
23185;SDS011;11761;51.324;4.590;2022-10-01T15:57:51;0.73;;;0.43;;
23185;SDS011;11761;51.324;4.590;2022-10-01T16:00:28;0.90;;;0.40;;
23185;SDS011;11761;51.324;4.590;2022-10-01T16:02:58;0.93;;;0.57;;
23185;SDS011;11761;51.324;4.590;2022-10-01T16:05:25;1.77;;;0.63;;
23185;SDS011;11761;51.324;4.590;2022-10-01T16:07:57;0.70;;;0.40;;
23185;SDS011;11761;51.324;4.590;2022-10-01T16:10:30;2.10;;;0.80;;
23185;SDS011;11761;51.324;4.590;2022-10-01T16:12:59;1.85;;;0.70;;
23185;SDS011;11761;51.324;4.590;2022-10-01T16:15:59;1.88;;;0.43;;
23185;SDS011;11761;51.324;4.590;2022-10-01T16:25:02;3.25;;;0.73;;
23185;SDS011;11761;51.324;4.590;2022-10-01T16:27:45;0.90;;;0.45;;
23185;SDS011;11761;51.324;4.590;2022-10-01T16:30:22;1.08;;;0.47;;
23185;SDS011;11761;51.324;4.590;2022-10-01T16:32:55;1.17;;;0.50;;
23185;SDS011;11761;51.324;4.590;2022-10-01T16:35:23;1.23;;;0.60;;
23185;SDS011;11761;51.324;4.590;2022-10-01T16:37:51;1.98;;;1.15;;
23185;SDS011;11761;51.324;4.590;2022-10-01T16:40:20;2.97;;;0.80;;
23185;SDS011;11761;51.324;4.590;2022-10-01T16:42:48;2.00;;;0.85;;
23185;SDS011;11761;51.324;4.590;2022-10-01T16:45:23;2.83;;;0.95;;
23185;SDS011;11761;51.324;4.590;2022-10-01T16:47:51;2.15;;;0.70;;
23185;SDS011;11761;51.324;4.590;2022-10-01T16:50:19;1.23;;;0.60;;
23185;SDS011;11761;51.324;4.590;2022-10-01T16:52:46;4.97;;;0.80;;
23185;SDS011;11761;51.324;4.590;2022-10-01T16:55:22;2.42;;;0.70;;
23185;SDS011;11761;51.324;4.590;2022-10-01T16:57:51;2.47;;;0.80;;
23185;SDS011;11761;51.324;4.590;2022-10-01T17:00:19;2.80;;;0.60;;
23185;SDS011;11761;51.324;4.590;2022-10-01T17:02:46;1.13;;;0.80;;
23185;SDS011;11761;51.324;4.590;2022-10-01T17:05:17;9.52;;;4.07;;
23185;SDS011;11761;51.324;4.590;2022-10-01T17:07:46;5.68;;;3.53;;
23185;SDS011;11761;51.324;4.590;2022-10-01T17:10:14;3.38;;;1.95;;
23185;SDS011;11761;51.324;4.590;2022-10-01T17:12:41;4.15;;;2.30;;
23185;SDS011;11761;51.324;4.590;2022-10-01T17:15:12;2.33;;;1.00;;
23185;SDS011;11761;51.324;4.590;2022-10-01T17:17:43;5.00;;;2.67;;
23185;SDS011;11761;51.324;4.590;2022-10-01T17:20:10;2.75;;;1.45;;
23185;SDS011;11761;51.324;4.590;2022-10-01T17:22:36;6.53;;;1.48;;
23185;SDS011;11761;51.324;4.590;2022-10-01T17:25:16;5.15;;;1.33;;
23185;SDS011;11761;51.324;4.590;2022-10-01T17:27:44;4.05;;;1.20;;
23185;SDS011;11761;51.324;4.590;2022-10-01T17:30:10;1.42;;;0.85;;
23185;SDS011;11761;51.324;4.590;2022-10-01T17:32:36;1.73;;;1.35;;
23185;SDS011;11761;51.324;4.590;2022-10-01T17:35:05;1.85;;;0.80;;
23185;SDS011;11761;51.324;4.590;2022-10-01T17:37:32;2.55;;;1.23;;
23185;SDS011;11761;51.324;4.590;2022-10-01T17:39:59;3.63;;;1.13;;
23185;SDS011;11761;51.324;4.590;2022-10-01T17:42:25;4.90;;;1.40;;
23185;SDS011;11761;51.324;4.590;2022-10-01T17:44:51;1.90;;;1.27;;
23185;SDS011;11761;51.324;4.590;2022-10-01T17:47:19;1.92;;;1.00;;
23185;SDS011;11761;51.324;4.590;2022-10-01T17:49:45;1.92;;;1.10;;
23185;SDS011;11761;51.324;4.590;2022-10-01T17:52:11;3.47;;;1.25;;
23185;SDS011;11761;51.324;4.590;2022-10-01T17:54:37;2.65;;;0.98;;
23185;SDS011;11761;51.324;4.590;2022-10-01T17:57:03;2.17;;;1.10;;
23185;SDS011;11761;51.324;4.590;2022-10-01T17:59:30;2.53;;;1.40;;
23185;SDS011;11761;51.324;4.590;2022-10-01T18:01:56;2.10;;;1.15;;
23185;SDS011;11761;51.324;4.590;2022-10-01T18:04:22;2.15;;;1.20;;
23185;SDS011;11761;51.324;4.590;2022-10-01T18:06:51;4.03;;;1.40;;